sensor_id;sensor_type;location;lat;lon;timestamp;pressure;altitude;pressure_sealevel;temperature;humidity
49297;BME280;35163;48.878;18.040;2023-02-19T00:01:28;98372.75;;;11.45;59.86
49297;BME280;35163;48.878;18.040;2023-02-19T00:03:57;98392.72;;;11.41;60.07
49297;BME280;35163;48.878;18.040;2023-02-19T00:06:26;98368.00;;;11.32;59.74
49297;BME280;35163;48.878;18.040;2023-02-19T00:08:53;98368.97;;;11.29;60.37
49297;BME280;35163;48.878;18.040;2023-02-19T00:11:21;98394.78;;;11.31;60.35
49297;BME280;35163;48.878;18.040;2023-02-19T00:13:51;98384.56;;;11.26;60.16
49297;BME280;35163;48.878;18.040;2023-02-19T00:16:20;98390.13;;;11.15;60.38
49297;BME280;35163;48.878;18.040;2023-02-19T00:18:48;98367.69;;;11.16;60.55
49297;BME280;35163;48.878;18.040;2023-02-19T00:21:15;98371.06;;;11.18;60.89
49297;BME280;35163;48.878;18.040;2023-02-19T00:23:42;98366.00;;;11.15;60.85
49297;BME280;35163;48.878;18.040;2023-02-19T00:26:14;98367.84;;;11.11;60.99
49297;BME280;35163;48.878;18.040;2023-02-19T00:28:45;98361.97;;;11.06;61.04
49297;BME280;35163;48.878;18.040;2023-02-19T00:31:26;98374.09;;;11.05;60.95
49297;BME280;35163;48.878;18.040;2023-02-19T00:33:55;98377.50;;;11.06;60.57
49297;BME280;35163;48.878;18.040;2023-02-19T00:36:23;98376.88;;;10.99;60.50
49297;BME280;35163;48.878;18.040;2023-02-19T00:38:51;98374.22;;;11.01;60.15
49297;BME280;35163;48.878;18.040;2023-02-19T00:41:18;98382.78;;;11.03;59.52
49297;BME280;35163;48.878;18.040;2023-02-19T00:44:03;98386.38;;;10.99;60.26
49297;BME280;35163;48.878;18.040;2023-02-19T00:46:36;98377.94;;;10.93;60.49
49297;BME280;35163;48.878;18.040;2023-02-19T00:49:05;98378.00;;;10.90;60.40
49297;BME280;35163;48.878;18.040;2023-02-19T00:51:35;98387.63;;;10.87;60.88
49297;BME280;35163;48.878;18.040;2023-02-19T00:54:02;98379.81;;;10.88;60.91
49297;BME280;35163;48.878;18.040;2023-02-19T00:56:30;98386.69;;;10.89;60.97
49297;BME280;35163;48.878;18.040;2023-02-19T00:58:56;98391.59;;;10.97;61.10
49297;BME280;35163;48.878;18.040;2023-02-19T01:01:23;98379.44;;;10.99;60.77
49297;BME280;35163;48.878;18.040;2023-02-19T01:03:53;98372.66;;;10.97;61.09
49297;BME280;35163;48.878;18.040;2023-02-19T01:06:20;98378.75;;;10.94;61.21
49297;BME280;35163;48.878;18.040;2023-02-19T01:08:47;98371.97;;;10.91;61.35
49297;BME280;35163;48.878;18.040;2023-02-19T01:11:14;98361.63;;;10.91;61.81
49297;BME280;35163;48.878;18.040;2023-02-19T01:13:42;98362.53;;;10.89;62.16
49297;BME280;35163;48.878;18.040;2023-02-19T01:16:18;98354.66;;;10.93;61.80
49297;BME280;35163;48.878;18.040;2023-02-19T01:18:46;98353.97;;;10.88;62.52
49297;BME280;35163;48.878;18.040;2023-02-19T01:21:16;98360.19;;;10.82;62.64
49297;BME280;35163;48.878;18.040;2023-02-19T01:23:43;98353.47;;;10.77;63.35
49297;BME280;35163;48.878;18.040;2023-02-19T01:26:13;98349.88;;;10.81;63.18
49297;BME280;35163;48.878;18.040;2023-02-19T01:28:41;98348.09;;;10.83;62.86
49297;BME280;35163;48.878;18.040;2023-02-19T01:31:11;98354.94;;;10.84;63.22
49297;BME280;35163;48.878;18.040;2023-02-19T01:33:39;98353.41;;;10.78;63.39
49297;BME280;35163;48.878;18.040;2023-02-19T01:36:06;98350.09;;;10.75;63.69
49297;BME280;35163;48.878;18.040;2023-02-19T01:38:33;98359.66;;;10.73;63.64
49297;BME280;35163;48.878;18.040;2023-02-19T01:41:02;98359.66;;;10.73;64.29
49297;BME280;35163;48.878;18.040;2023-02-19T01:43:32;98358.84;;;10.71;64.11
49297;BME280;35163;48.878;18.040;2023-02-19T01:45:59;98362.34;;;10.69;64.54
49297;BME280;35163;48.878;18.040;2023-02-19T01:48:35;98355.56;;;10.65;64.83
49297;BME280;35163;48.878;18.040;2023-02-19T01:51:16;98357.34;;;10.63;65.26
49297;BME280;35163;48.878;18.040;2023-02-19T01:53:53;98363.44;;;10.62;65.21
49297;BME280;35163;48.878;18.040;2023-02-19T01:56:23;98358.25;;;10.62;65.42
49297;BME280;35163;48.878;18.040;2023-02-19T01:58:51;98346.31;;;10.58;65.98
49297;BME280;35163;48.878;18.040;2023-02-19T02:01:18;98336.13;;;10.53;66.69
49297;BME280;35163;48.878;18.040;2023-02-19T02:03:47;98332.75;;;10.51;66.52
49297;BME280;35163;48.878;18.040;2023-02-19T02:08:50;98338.72;;;10.53;66.50
49297;BME280;35163;48.878;18.040;2023-02-19T02:11:45;98332.69;;;10.53;66.84
49297;BME280;35163;48.878;18.040;2023-02-19T02:14:13;98334.34;;;10.55;67.22
49297;BME280;35163;48.878;18.040;2023-02-19T02:20:01;98329.28;;;10.52;65.95
49297;BME280;35163;48.878;18.040;2023-02-19T02:22:43;98324.94;;;10.53;66.05
49297;BME280;35163;48.878;18.040;2023-02-19T02:25:34;98333.66;;;10.50;66.51
49297;BME280;35163;48.878;18.040;2023-02-19T02:33:45;98328.72;;;10.41;66.35
49297;BME280;35163;48.878;18.040;2023-02-19T02:36:26;98332.16;;;10.41;66.89
49297;BME280;35163;48.878;18.040;2023-02-19T02:38:55;98336.53;;;10.39;66.89
49297;BME280;35163;48.878;18.040;2023-02-19T02:41:24;98336.53;;;10.39;67.12
49297;BME280;35163;48.878;18.040;2023-02-19T02:43:50;98323.81;;;10.33;68.13
49297;BME280;35163;48.878;18.040;2023-02-19T02:46:29;98329.78;;;10.35;68.02
49297;BME280;35163;48.878;18.040;2023-02-19T02:49:02;98317.75;;;10.34;67.81
49297;BME280;35163;48.878;18.040;2023-02-19T02:51:43;98324.56;;;10.37;68.20
49297;BME280;35163;48.878;18.040;2023-02-19T02:54:22;98314.34;;;10.32;68.54
49297;BME280;35163;48.878;18.040;2023-02-19T02:57:08;98306.53;;;10.35;68.48
49297;BME280;35163;48.878;18.040;2023-02-19T02:59:41;98296.88;;;10.40;68.12
49297;BME280;35163;48.878;18.040;2023-02-19T03:02:13;98295.88;;;10.44;68.14
49297;BME280;35163;48.878;18.040;2023-02-19T03:05:06;98303.75;;;10.41;68.40
49297;BME280;35163;48.878;18.040;2023-02-19T03:10:25;98294.31;;;10.40;68.19
49297;BME280;35163;48.878;18.040;2023-02-19T03:12:55;98297.66;;;10.42;68.09
49297;BME280;35163;48.878;18.040;2023-02-19T03:15:49;98292.50;;;10.42;68.62
49297;BME280;35163;48.878;18.040;2023-02-19T03:18:38;98296.09;;;10.38;69.11
49297;BME280;35163;48.878;18.040;2023-02-19T03:21:27;98301.19;;;10.40;68.97
49297;BME280;35163;48.878;18.040;2023-02-19T03:23:55;98296.94;;;10.39;68.67
49297;BME280;35163;48.878;18.040;2023-02-19T03:26:42;98297.88;;;10.36;69.16
49297;BME280;35163;48.878;18.040;2023-02-19T03:29:12;98295.34;;;10.35;69.23
49297;BME280;35163;48.878;18.040;2023-02-19T03:31:52;98295.50;;;10.30;69.18
49297;BME280;35163;48.878;18.040;2023-02-19T03:34:27;98285.16;;;10.30;69.06
49297;BME280;35163;48.878;18.040;2023-02-19T03:37:07;98294.47;;;10.34;69.01
49297;BME280;35163;48.878;18.040;2023-02-19T03:39:36;98296.25;;;10.33;68.81
49297;BME280;35163;48.878;18.040;2023-02-19T03:45:13;98292.66;;;10.38;68.73
49297;BME280;35163;48.878;18.040;2023-02-19T03:47:49;98305.41;;;10.42;68.22
49297;BME280;35163;48.878;18.040;2023-02-19T03:50:49;98300.16;;;10.45;68.87
49297;BME280;35163;48.878;18.040;2023-02-19T03:53:33;98296.50;;;10.53;68.66
49297;BME280;35163;48.878;18.040;2023-02-19T03:56:08;98296.50;;;10.53;68.60
49297;BME280;35163;48.878;18.040;2023-02-19T03:59:15;98297.28;;;10.55;68.89
49297;BME280;35163;48.878;18.040;2023-02-19T04:01:39;98285.38;;;10.51;68.78
49297;BME280;35163;48.878;18.040;2023-02-19T04:04:27;98296.53;;;10.51;68.30
49297;BME280;35163;48.878;18.040;2023-02-19T04:06:59;98301.00;;;10.46;68.66
49297;BME280;35163;48.878;18.040;2023-02-19T04:09:34;98293.28;;;10.44;68.39
49297;BME280;35163;48.878;18.040;2023-02-19T04:12:04;98295.28;;;10.36;69.04
49297;BME280;35163;48.878;18.040;2023-02-19T04:14:36;98297.06;;;10.34;69.56
49297;BME280;35163;48.878;18.040;2023-02-19T04:17:09;98294.69;;;10.28;69.57
49297;BME280;35163;48.878;18.040;2023-02-19T04:19:40;98288.50;;;10.32;69.81
49297;BME280;35163;48.878;18.040;2023-02-19T04:22:09;98288.78;;;10.24;70.09
49297;BME280;35163;48.878;18.040;2023-02-19T04:24:40;98291.34;;;10.24;70.10
49297;BME280;35163;48.878;18.040;2023-02-19T04:27:08;98288.81;;;10.23;70.42
49297;BME280;35163;48.878;18.040;2023-02-19T04:29:35;98276.00;;;10.19;71.26
49297;BME280;35163;48.878;18.040;2023-02-19T04:32:04;98269.06;;;10.21;70.83
49297;BME280;35163;48.878;18.040;2023-02-19T04:34:31;98271.72;;;10.18;71.08
49297;BME280;35163;48.878;18.040;2023-02-19T04:36:58;98274.22;;;10.21;71.32
49297;BME280;35163;48.878;18.040;2023-02-19T04:39:25;98277.00;;;10.15;71.52
49297;BME280;35163;48.878;18.040;2023-02-19T04:41:51;98280.38;;;10.17;72.32
49297;BME280;35163;48.878;18.040;2023-02-19T04:44:18;98277.84;;;10.16;72.37
49297;BME280;35163;48.878;18.040;2023-02-19T04:46:44;98283.88;;;10.15;72.42
49297;BME280;35163;48.878;18.040;2023-02-19T04:49:11;98278.06;;;10.09;72.14
49297;BME280;35163;48.878;18.040;2023-02-19T04:51:38;98280.72;;;10.06;72.61
49297;BME280;35163;48.878;18.040;2023-02-19T04:54:05;98277.38;;;10.03;72.67
49297;BME280;35163;48.878;18.040;2023-02-19T04:56:32;98275.59;;;10.05;72.78
49297;BME280;35163;48.878;18.040;2023-02-19T04:58:58;98276.50;;;10.04;72.47
49297;BME280;35163;48.878;18.040;2023-02-19T05:01:25;98282.53;;;10.04;72.58
49297;BME280;35163;48.878;18.040;2023-02-19T05:03:52;98279.28;;;9.98;73.27
49297;BME280;35163;48.878;18.040;2023-02-19T05:06:18;98268.94;;;9.98;73.20
49297;BME280;35163;48.878;18.040;2023-02-19T05:08:45;98264.50;;;10.01;72.64
49297;BME280;35163;48.878;18.040;2023-02-19T05:11:12;98273.16;;;10.00;73.14
49297;BME280;35163;48.878;18.040;2023-02-19T05:13:39;98268.75;;;10.04;73.29
49297;BME280;35163;48.878;18.040;2023-02-19T05:16:11;98274.88;;;10.00;73.26
49297;BME280;35163;48.878;18.040;2023-02-19T05:18:39;98267.13;;;10.00;73.12
49297;BME280;35163;48.878;18.040;2023-02-19T05:21:07;98264.47;;;10.03;73.18
49297;BME280;35163;48.878;18.040;2023-02-19T05:23:34;98260.31;;;9.99;73.24
49297;BME280;35163;48.878;18.040;2023-02-19T05:26:12;98258.63;;;9.98;73.79
49297;BME280;35163;48.878;18.040;2023-02-19T05:28:38;98254.19;;;10.01;73.41
49297;BME280;35163;48.878;18.040;2023-02-19T05:31:07;98249.97;;;9.99;73.19
49297;BME280;35163;48.878;18.040;2023-02-19T05:33:34;98250.88;;;9.98;73.56
49297;BME280;35163;48.878;18.040;2023-02-19T05:36:05;98248.28;;;9.98;73.80
49297;BME280;35163;48.878;18.040;2023-02-19T05:38:33;98254.47;;;9.92;74.24
49297;BME280;35163;48.878;18.040;2023-02-19T05:41:14;98245.94;;;9.90;74.46
49297;BME280;35163;48.878;18.040;2023-02-19T05:43:42;98247.59;;;9.91;74.41
49297;BME280;35163;48.878;18.040;2023-02-19T05:46:11;98241.53;;;9.93;74.66
49297;BME280;35163;48.878;18.040;2023-02-19T05:48:38;98238.13;;;9.91;74.80
49297;BME280;35163;48.878;18.040;2023-02-19T05:51:07;98242.28;;;9.97;74.96
49297;BME280;35163;48.878;18.040;2023-02-19T05:53:34;98239.75;;;9.95;75.23
49297;BME280;35163;48.878;18.040;2023-02-19T05:56:01;98229.34;;;9.97;75.30
49297;BME280;35163;48.878;18.040;2023-02-19T05:58:28;98221.50;;;10.00;75.65
49297;BME280;35163;48.878;18.040;2023-02-19T06:00:55;98216.63;;;9.91;76.24
49297;BME280;35163;48.878;18.040;2023-02-19T06:03:22;98218.38;;;9.90;76.49
49297;BME280;35163;48.878;18.040;2023-02-19T06:05:49;98223.50;;;9.92;76.17
49297;BME280;35163;48.878;18.040;2023-02-19T06:08:15;98222.63;;;9.91;76.67
49297;BME280;35163;48.878;18.040;2023-02-19T06:10:42;98214.94;;;9.90;76.75
49297;BME280;35163;48.878;18.040;2023-02-19T06:13:09;98214.00;;;9.92;76.50
49297;BME280;35163;48.878;18.040;2023-02-19T06:15:36;98211.50;;;9.89;76.37
49297;BME280;35163;48.878;18.040;2023-02-19T06:18:03;98219.34;;;9.86;76.98
49297;BME280;35163;48.878;18.040;2023-02-19T06:20:30;98217.53;;;9.90;76.88
49297;BME280;35163;48.878;18.040;2023-02-19T06:22:56;98218.16;;;9.96;76.23
49297;BME280;35163;48.878;18.040;2023-02-19T06:25:23;98220.84;;;9.93;76.33
49297;BME280;35163;48.878;18.040;2023-02-19T06:27:50;98224.25;;;9.95;76.42
49297;BME280;35163;48.878;18.040;2023-02-19T06:30:16;98226.94;;;9.92;76.62
49297;BME280;35163;48.878;18.040;2023-02-19T06:32:43;98231.19;;;9.93;76.86
49297;BME280;35163;48.878;18.040;2023-02-19T06:35:09;98218.97;;;9.99;76.62
49297;BME280;35163;48.878;18.040;2023-02-19T06:37:36;98217.88;;;10.06;76.50
49297;BME280;35163;48.878;18.040;2023-02-19T06:40:03;98231.56;;;10.09;75.76
49297;BME280;35163;48.878;18.040;2023-02-19T06:42:31;98233.44;;;10.04;76.27
49297;BME280;35163;48.878;18.040;2023-02-19T06:44:58;98229.84;;;10.08;75.96
49297;BME280;35163;48.878;18.040;2023-02-19T06:47:25;98241.88;;;10.09;75.76
49297;BME280;35163;48.878;18.040;2023-02-19T06:49:51;98227.94;;;10.14;75.38
49297;BME280;35163;48.878;18.040;2023-02-19T06:52:18;98222.03;;;10.10;75.21
49297;BME280;35163;48.878;18.040;2023-02-19T06:54:44;98226.56;;;10.03;75.77
49297;BME280;35163;48.878;18.040;2023-02-19T06:57:11;98227.38;;;10.05;75.72
49297;BME280;35163;48.878;18.040;2023-02-19T06:59:38;98220.38;;;10.09;75.53
49297;BME280;35163;48.878;18.040;2023-02-19T07:02:05;98229.00;;;10.08;75.51
49297;BME280;35163;48.878;18.040;2023-02-19T07:04:31;98230.59;;;10.12;75.08
49297;BME280;35163;48.878;18.040;2023-02-19T07:06:58;98221.16;;;10.11;74.82
49297;BME280;35163;48.878;18.040;2023-02-19T07:09:25;98222.16;;;10.07;75.25
49297;BME280;35163;48.878;18.040;2023-02-19T07:11:53;98206.66;;;10.07;75.08
49297;BME280;35163;48.878;18.040;2023-02-19T07:14:20;98216.88;;;10.10;74.86
49297;BME280;35163;48.878;18.040;2023-02-19T07:16:47;98219.50;;;10.08;75.12
49297;BME280;35163;48.878;18.040;2023-02-19T07:19:14;98220.31;;;10.11;74.72
49297;BME280;35163;48.878;18.040;2023-02-19T07:21:41;98212.34;;;10.17;74.33
49297;BME280;35163;48.878;18.040;2023-02-19T07:24:08;98207.22;;;10.15;74.44
49297;BME280;35163;48.878;18.040;2023-02-19T07:26:35;98206.34;;;10.16;74.37
49297;BME280;35163;48.878;18.040;2023-02-19T07:29:02;98209.63;;;10.21;74.29
49297;BME280;35163;48.878;18.040;2023-02-19T07:31:29;98204.25;;;10.28;73.75
49297;BME280;35163;48.878;18.040;2023-02-19T07:33:56;98210.00;;;10.36;73.28
49297;BME280;35163;48.878;18.040;2023-02-19T07:36:23;98210.06;;;10.35;72.85
49297;BME280;35163;48.878;18.040;2023-02-19T07:38:54;98203.16;;;10.35;73.13
49297;BME280;35163;48.878;18.040;2023-02-19T07:41:21;98207.63;;;10.30;73.40
49297;BME280;35163;48.878;18.040;2023-02-19T07:43:48;98205.91;;;10.29;73.43
49297;BME280;35163;48.878;18.040;2023-02-19T07:46:14;98199.13;;;10.26;73.88
49297;BME280;35163;48.878;18.040;2023-02-19T07:48:41;98196.44;;;10.29;73.14
49297;BME280;35163;48.878;18.040;2023-02-19T07:51:11;98203.22;;;10.33;73.21
49297;BME280;35163;48.878;18.040;2023-02-19T07:53:39;98192.13;;;10.30;73.46
49297;BME280;35163;48.878;18.040;2023-02-19T07:56:07;98193.50;;;10.40;73.61
49297;BME280;35163;48.878;18.040;2023-02-19T07:58:34;98199.66;;;10.36;73.92
49297;BME280;35163;48.878;18.040;2023-02-19T08:03:35;98200.47;;;10.38;75.23
49297;BME280;35163;48.878;18.040;2023-02-19T08:06:03;98202.75;;;10.46;74.54
49297;BME280;35163;48.878;18.040;2023-02-19T08:08:30;98197.81;;;10.40;75.18
49297;BME280;35163;48.878;18.040;2023-02-19T08:11:00;98201.16;;;10.43;75.08
49297;BME280;35163;48.878;18.040;2023-02-19T08:13:50;98205.31;;;10.48;75.67
49297;BME280;35163;48.878;18.040;2023-02-19T08:16:18;98206.81;;;10.55;75.99
49297;BME280;35163;48.878;18.040;2023-02-19T08:19:02;98208.41;;;10.59;77.69
49297;BME280;35163;48.878;18.040;2023-02-19T08:21:29;98213.50;;;10.61;78.00
49297;BME280;35163;48.878;18.040;2023-02-19T08:23:56;98221.16;;;10.64;79.53
49297;BME280;35163;48.878;18.040;2023-02-19T08:26:23;98215.75;;;10.70;79.42
49297;BME280;35163;48.878;18.040;2023-02-19T08:28:50;98209.66;;;10.73;79.38
49297;BME280;35163;48.878;18.040;2023-02-19T08:31:16;98216.25;;;10.81;80.01
49297;BME280;35163;48.878;18.040;2023-02-19T08:33:43;98213.66;;;10.81;80.22
49297;BME280;35163;48.878;18.040;2023-02-19T08:36:10;98222.19;;;10.84;81.27
49297;BME280;35163;48.878;18.040;2023-02-19T08:38:37;98209.66;;;10.73;80.62
49297;BME280;35163;48.878;18.040;2023-02-19T08:41:09;98206.50;;;10.64;82.23
49297;BME280;35163;48.878;18.040;2023-02-19T08:43:37;98196.78;;;10.71;81.77
49297;BME280;35163;48.878;18.040;2023-02-19T08:46:05;98199.63;;;10.63;82.00
49297;BME280;35163;48.878;18.040;2023-02-19T08:48:41;98210.47;;;10.73;81.89
49297;BME280;35163;48.878;18.040;2023-02-19T08:51:10;98201.00;;;10.74;82.74
49297;BME280;35163;48.878;18.040;2023-02-19T08:53:38;98207.00;;;10.74;82.97
49297;BME280;35163;48.878;18.040;2023-02-19T08:56:10;98195.94;;;10.71;84.03
49297;BME280;35163;48.878;18.040;2023-02-19T08:58:38;98189.16;;;10.66;85.12
49297;BME280;35163;48.878;18.040;2023-02-19T09:01:13;98191.75;;;10.66;85.28
49297;BME280;35163;48.878;18.040;2023-02-19T09:03:40;98188.16;;;10.71;85.38
49297;BME280;35163;48.878;18.040;2023-02-19T09:06:12;98192.06;;;10.82;84.57
49297;BME280;35163;48.878;18.040;2023-02-19T09:08:38;98192.13;;;10.81;85.42
49297;BME280;35163;48.878;18.040;2023-02-19T09:11:05;98192.69;;;10.89;84.43
49297;BME280;35163;48.878;18.040;2023-02-19T09:13:32;98189.19;;;10.90;84.74
49297;BME280;35163;48.878;18.040;2023-02-19T09:16:01;98186.56;;;10.92;84.19
49297;BME280;35163;48.878;18.040;2023-02-19T09:18:30;98184.00;;;10.90;84.22
49297;BME280;35163;48.878;18.040;2023-02-19T09:21:02;98188.97;;;10.97;84.30
49297;BME280;35163;48.878;18.040;2023-02-19T09:23:34;98182.69;;;11.04;83.46
49297;BME280;35163;48.878;18.040;2023-02-19T09:26:02;98183.75;;;10.98;84.23
49297;BME280;35163;48.878;18.040;2023-02-19T09:28:32;98187.19;;;10.99;83.92
49297;BME280;35163;48.878;18.040;2023-02-19T09:31:06;98178.56;;;10.98;83.99
49297;BME280;35163;48.878;18.040;2023-02-19T09:33:41;98181.22;;;10.97;84.14
49297;BME280;35163;48.878;18.040;2023-02-19T09:36:08;98170.75;;;11.00;83.83
49297;BME280;35163;48.878;18.040;2023-02-19T09:38:34;98170.88;;;10.97;83.80
49297;BME280;35163;48.878;18.040;2023-02-19T09:44:05;98187.84;;;11.04;82.30
49297;BME280;35163;48.878;18.040;2023-02-19T09:49:33;98183.34;;;11.09;83.03
49297;BME280;35163;48.878;18.040;2023-02-19T09:52:17;98174.34;;;10.96;83.84
49297;BME280;35163;48.878;18.040;2023-02-19T09:54:46;98170.34;;;11.11;83.32
49297;BME280;35163;48.878;18.040;2023-02-19T09:57:18;98170.78;;;11.22;81.81
49297;BME280;35163;48.878;18.040;2023-02-19T10:02:30;98172.97;;;11.33;79.61
49297;BME280;35163;48.878;18.040;2023-02-19T10:04:57;98162.50;;;11.36;79.63
49297;BME280;35163;48.878;18.040;2023-02-19T10:07:34;98157.25;;;11.38;80.60
49297;BME280;35163;48.878;18.040;2023-02-19T10:12:51;98158.75;;;11.43;75.51
49297;BME280;35163;48.878;18.040;2023-02-19T10:17:53;98159.41;;;11.49;73.52
49297;BME280;35163;48.878;18.040;2023-02-19T10:20:21;98159.38;;;11.50;73.02
49297;BME280;35163;48.878;18.040;2023-02-19T10:23:05;98142.84;;;11.53;73.06
49297;BME280;35163;48.878;18.040;2023-02-19T10:25:33;98149.91;;;11.49;71.45
49297;BME280;35163;48.878;18.040;2023-02-19T10:28:01;98140.13;;;11.56;71.80
49297;BME280;35163;48.878;18.040;2023-02-19T10:30:32;98132.38;;;11.56;72.26
49297;BME280;35163;48.878;18.040;2023-02-19T10:33:14;98139.25;;;11.57;72.43
49297;BME280;35163;48.878;18.040;2023-02-19T10:36:04;98145.13;;;11.61;72.42
49297;BME280;35163;48.878;18.040;2023-02-19T10:38:37;98145.97;;;11.61;73.12
49297;BME280;35163;48.878;18.040;2023-02-19T10:41:20;98142.59;;;11.59;73.51
49297;BME280;35163;48.878;18.040;2023-02-19T10:44:13;98139.84;;;11.64;74.27
49297;BME280;35163;48.878;18.040;2023-02-19T10:46:43;98137.13;;;11.67;74.25
49297;BME280;35163;48.878;18.040;2023-02-19T10:49:23;98142.25;;;11.69;74.32
49297;BME280;35163;48.878;18.040;2023-02-19T10:51:54;98151.69;;;11.70;73.94
49297;BME280;35163;48.878;18.040;2023-02-19T10:54:28;98150.53;;;11.77;73.97
49297;BME280;35163;48.878;18.040;2023-02-19T10:57:21;98146.16;;;11.79;72.75
49297;BME280;35163;48.878;18.040;2023-02-19T11:00:18;98135.78;;;11.79;73.25
49297;BME280;35163;48.878;18.040;2023-02-19T11:03:12;98131.25;;;11.84;72.81
49297;BME280;35163;48.878;18.040;2023-02-19T11:05:49;98120.91;;;11.84;72.10
49297;BME280;35163;48.878;18.040;2023-02-19T11:08:20;98119.78;;;11.90;72.59
49297;BME280;35163;48.878;18.040;2023-02-19T11:10:48;98119.47;;;11.98;71.79
49297;BME280;35163;48.878;18.040;2023-02-19T11:13:27;98107.88;;;12.07;71.09
49297;BME280;35163;48.878;18.040;2023-02-19T11:15:56;98115.59;;;12.08;69.63
49297;BME280;35163;48.878;18.040;2023-02-19T11:18:26;98107.56;;;12.14;70.52
49297;BME280;35163;48.878;18.040;2023-02-19T11:20:58;98112.50;;;12.21;69.43
49297;BME280;35163;48.878;18.040;2023-02-19T11:23:29;98123.44;;;12.27;69.30
49297;BME280;35163;48.878;18.040;2023-02-19T11:25:58;98126.09;;;12.26;69.68
49297;BME280;35163;48.878;18.040;2023-02-19T11:31:33;98129.72;;;12.22;70.07
49297;BME280;35163;48.878;18.040;2023-02-19T11:33:59;98139.13;;;12.24;70.05
49297;BME280;35163;48.878;18.040;2023-02-19T11:36:30;98135.06;;;12.19;71.23
49297;BME280;35163;48.878;18.040;2023-02-19T11:38:58;98133.34;;;12.18;71.79
49297;BME280;35163;48.878;18.040;2023-02-19T11:52:16;98129.72;;;12.22;70.54
49297;BME280;35163;48.878;18.040;2023-02-19T12:17:00;98182.34;;;12.24;69.39
49297;BME280;35163;48.878;18.040;2023-02-19T12:19:43;98180.94;;;12.17;68.01
49297;BME280;35163;48.878;18.040;2023-02-19T12:30:19;98196.41;;;12.18;68.67
49297;BME280;35163;48.878;18.040;2023-02-19T12:35:52;98232.41;;;11.81;67.65
49297;BME280;35163;48.878;18.040;2023-02-19T12:38:30;98225.41;;;11.61;67.87
49297;BME280;35163;48.878;18.040;2023-02-19T12:41:17;98227.75;;;11.45;68.58
49297;BME280;35163;48.878;18.040;2023-02-19T12:44:00;98230.56;;;11.14;70.91
49297;BME280;35163;48.878;18.040;2023-02-19T12:46:40;98236.53;;;11.16;73.25
49297;BME280;35163;48.878;18.040;2023-02-19T12:51:54;98234.63;;;10.98;73.28
49297;BME280;35163;48.878;18.040;2023-02-19T12:54:34;98229.81;;;10.88;75.08
49297;BME280;35163;48.878;18.040;2023-02-19T12:59:42;98236.03;;;10.82;76.21
49297;BME280;35163;48.878;18.040;2023-02-19T13:02:13;98229.84;;;10.87;76.23
49297;BME280;35163;48.878;18.040;2023-02-19T13:04:50;98244.47;;;10.88;77.20
49297;BME280;35163;48.878;18.040;2023-02-19T13:07:34;98247.38;;;10.78;77.26
49297;BME280;35163;48.878;18.040;2023-02-19T13:10:28;98250.22;;;10.71;78.27
49297;BME280;35163;48.878;18.040;2023-02-19T13:13:00;98240.88;;;10.66;79.13
49297;BME280;35163;48.878;18.040;2023-02-19T13:15:33;98240.13;;;10.64;79.21
49297;BME280;35163;48.878;18.040;2023-02-19T13:18:02;98238.69;;;10.55;79.52
49297;BME280;35163;48.878;18.040;2023-02-19T13:20:34;98223.91;;;10.59;79.18
49297;BME280;35163;48.878;18.040;2023-02-19T13:26:14;98230.47;;;10.69;80.73
49297;BME280;35163;48.878;18.040;2023-02-19T13:31:35;98229.31;;;10.77;80.33
49297;BME280;35163;48.878;18.040;2023-02-19T13:37:05;98228.56;;;10.75;81.96
49297;BME280;35163;48.878;18.040;2023-02-19T13:39:33;98220.69;;;10.78;81.72
49297;BME280;35163;48.878;18.040;2023-02-19T13:42:00;98215.66;;;10.73;83.17
49297;BME280;35163;48.878;18.040;2023-02-19T13:44:39;98213.97;;;10.72;83.14
49297;BME280;35163;48.878;18.040;2023-02-19T13:50:27;98223.41;;;10.73;82.84
49297;BME280;35163;48.878;18.040;2023-02-19T13:52:55;98232.97;;;10.71;83.53
49297;BME280;35163;48.878;18.040;2023-02-19T13:55:49;98226.16;;;10.68;83.76
49297;BME280;35163;48.878;18.040;2023-02-19T14:01:09;98222.78;;;10.66;83.75
49297;BME280;35163;48.878;18.040;2023-02-19T14:03:46;98237.06;;;10.77;82.30
49297;BME280;35163;48.878;18.040;2023-02-19T14:06:13;98240.47;;;10.79;82.30
49297;BME280;35163;48.878;18.040;2023-02-19T14:08:56;98240.09;;;10.90;81.93
49297;BME280;35163;48.878;18.040;2023-02-19T14:14:34;98265.34;;;10.83;83.67
49297;BME280;35163;48.878;18.040;2023-02-19T14:31:02;98273.19;;;10.80;80.04
49297;BME280;35163;48.878;18.040;2023-02-19T14:33:37;98272.47;;;10.76;78.81
49297;BME280;35163;48.878;18.040;2023-02-19T14:36:13;98275.03;;;10.76;79.12
49297;BME280;35163;48.878;18.040;2023-02-19T14:38:47;98282.75;;;10.78;79.03
49297;BME280;35163;48.878;18.040;2023-02-19T14:41:17;98283.63;;;10.77;77.63
49297;BME280;35163;48.878;18.040;2023-02-19T14:43:48;98298.41;;;10.73;77.60
49297;BME280;35163;48.878;18.040;2023-02-19T14:46:30;98296.63;;;10.75;77.31
49297;BME280;35163;48.878;18.040;2023-02-19T14:49:05;98298.50;;;10.70;77.61
49297;BME280;35163;48.878;18.040;2023-02-19T14:51:39;98286.78;;;10.60;76.96
49297;BME280;35163;48.878;18.040;2023-02-19T14:57:14;98282.78;;;10.51;78.81
49297;BME280;35163;48.878;18.040;2023-02-19T15:02:20;98284.47;;;10.52;78.11
49297;BME280;35163;48.878;18.040;2023-02-19T15:04:47;98284.63;;;10.47;78.11
49297;BME280;35163;48.878;18.040;2023-02-19T15:07:17;98293.13;;;10.51;77.45
49297;BME280;35163;48.878;18.040;2023-02-19T15:09:50;98280.28;;;10.48;77.91
49297;BME280;35163;48.878;18.040;2023-02-19T15:12:43;98285.53;;;10.44;77.88
49297;BME280;35163;48.878;18.040;2023-02-19T15:15:17;98285.41;;;10.49;78.14
49297;BME280;35163;48.878;18.040;2023-02-19T15:17:46;98293.22;;;10.48;78.23